sensor_id;sensor_type;location;lat;lon;timestamp;P1;durP1;ratioP1;P2;durP2;ratioP2
55218;SDS011;65463;43.864;20.136;2023-09-19T00:00:59;20.13;;;10.50;;
55218;SDS011;65463;43.864;20.136;2023-09-19T00:03:26;22.73;;;10.45;;
55218;SDS011;65463;43.864;20.136;2023-09-19T00:05:53;21.55;;;11.05;;
55218;SDS011;65463;43.864;20.136;2023-09-19T00:08:20;18.42;;;10.95;;
55218;SDS011;65463;43.864;20.136;2023-09-19T00:10:50;19.77;;;11.87;;
55218;SDS011;65463;43.864;20.136;2023-09-19T00:13:16;21.30;;;12.20;;
55218;SDS011;65463;43.864;20.136;2023-09-19T00:15:46;24.30;;;13.00;;
55218;SDS011;65463;43.864;20.136;2023-09-19T00:18:14;25.58;;;14.15;;
55218;SDS011;65463;43.864;20.136;2023-09-19T00:20:43;24.42;;;14.30;;
55218;SDS011;65463;43.864;20.136;2023-09-19T00:23:14;27.15;;;14.15;;
55218;SDS011;65463;43.864;20.136;2023-09-19T00:25:40;31.90;;;13.82;;
55218;SDS011;65463;43.864;20.136;2023-09-19T00:28:10;29.92;;;16.23;;
55218;SDS011;65463;43.864;20.136;2023-09-19T00:30:36;27.13;;;15.80;;
55218;SDS011;65463;43.864;20.136;2023-09-19T00:33:03;26.05;;;14.75;;
55218;SDS011;65463;43.864;20.136;2023-09-19T00:35:31;24.83;;;13.25;;
55218;SDS011;65463;43.864;20.136;2023-09-19T00:37:58;29.55;;;16.02;;
55218;SDS011;65463;43.864;20.136;2023-09-19T00:40:24;31.60;;;15.80;;
55218;SDS011;65463;43.864;20.136;2023-09-19T00:42:51;28.52;;;15.93;;
55218;SDS011;65463;43.864;20.136;2023-09-19T00:45:18;28.52;;;15.60;;
55218;SDS011;65463;43.864;20.136;2023-09-19T00:47:46;25.30;;;15.32;;
55218;SDS011;65463;43.864;20.136;2023-09-19T00:50:17;28.63;;;15.20;;
55218;SDS011;65463;43.864;20.136;2023-09-19T00:52:43;24.30;;;13.90;;
55218;SDS011;65463;43.864;20.136;2023-09-19T00:55:10;28.40;;;16.13;;
55218;SDS011;65463;43.864;20.136;2023-09-19T00:57:40;27.67;;;15.48;;
55218;SDS011;65463;43.864;20.136;2023-09-19T01:00:07;23.70;;;13.07;;
55218;SDS011;65463;43.864;20.136;2023-09-19T01:02:40;22.70;;;11.68;;
55218;SDS011;65463;43.864;20.136;2023-09-19T01:05:10;24.43;;;12.10;;
55218;SDS011;65463;43.864;20.136;2023-09-19T01:07:38;22.88;;;11.80;;
55218;SDS011;65463;43.864;20.136;2023-09-19T01:10:17;19.92;;;11.27;;
55218;SDS011;65463;43.864;20.136;2023-09-19T01:15:21;22.40;;;11.68;;
55218;SDS011;65463;43.864;20.136;2023-09-19T01:20:25;21.85;;;11.30;;
55218;SDS011;65463;43.864;20.136;2023-09-19T01:30:50;21.45;;;11.13;;
55218;SDS011;65463;43.864;20.136;2023-09-19T01:33:19;19.48;;;10.73;;
55218;SDS011;65463;43.864;20.136;2023-09-19T01:35:48;18.23;;;10.48;;
55218;SDS011;65463;43.864;20.136;2023-09-19T01:38:17;18.17;;;10.70;;
55218;SDS011;65463;43.864;20.136;2023-09-19T01:41:05;18.88;;;10.65;;
55218;SDS011;65463;43.864;20.136;2023-09-19T01:43:38;20.98;;;11.20;;
55218;SDS011;65463;43.864;20.136;2023-09-19T01:48:40;20.92;;;11.57;;
55218;SDS011;65463;43.864;20.136;2023-09-19T01:51:11;18.58;;;10.52;;
55218;SDS011;65463;43.864;20.136;2023-09-19T01:54:01;21.92;;;11.05;;
55218;SDS011;65463;43.864;20.136;2023-09-19T01:56:29;30.02;;;15.40;;
55218;SDS011;65463;43.864;20.136;2023-09-19T01:58:59;27.75;;;15.82;;
55218;SDS011;65463;43.864;20.136;2023-09-19T02:01:30;56.50;;;31.85;;
55218;SDS011;65463;43.864;20.136;2023-09-19T02:03:59;71.40;;;37.92;;
55218;SDS011;65463;43.864;20.136;2023-09-19T02:06:26;71.03;;;38.70;;
55218;SDS011;65463;43.864;20.136;2023-09-19T02:08:53;70.60;;;38.17;;
55218;SDS011;65463;43.864;20.136;2023-09-19T02:11:20;81.13;;;41.90;;
55218;SDS011;65463;43.864;20.136;2023-09-19T02:13:56;66.55;;;34.17;;
55218;SDS011;65463;43.864;20.136;2023-09-19T02:16:22;63.67;;;34.22;;
55218;SDS011;65463;43.864;20.136;2023-09-19T02:18:49;66.93;;;35.63;;
55218;SDS011;65463;43.864;20.136;2023-09-19T02:21:16;68.70;;;36.40;;
55218;SDS011;65463;43.864;20.136;2023-09-19T02:23:43;67.45;;;34.33;;
55218;SDS011;65463;43.864;20.136;2023-09-19T02:26:09;59.40;;;31.02;;
55218;SDS011;65463;43.864;20.136;2023-09-19T02:28:37;56.25;;;29.55;;
55218;SDS011;65463;43.864;20.136;2023-09-19T02:31:05;53.45;;;29.15;;
55218;SDS011;65463;43.864;20.136;2023-09-19T02:33:31;53.00;;;29.33;;
55218;SDS011;65463;43.864;20.136;2023-09-19T02:35:58;61.55;;;28.35;;
55218;SDS011;65463;43.864;20.136;2023-09-19T02:38:25;49.78;;;26.30;;
55218;SDS011;65463;43.864;20.136;2023-09-19T02:40:52;46.92;;;23.17;;
55218;SDS011;65463;43.864;20.136;2023-09-19T02:43:20;40.70;;;20.50;;
55218;SDS011;65463;43.864;20.136;2023-09-19T02:45:46;44.00;;;19.75;;
55218;SDS011;65463;43.864;20.136;2023-09-19T02:48:15;38.67;;;18.33;;
55218;SDS011;65463;43.864;20.136;2023-09-19T02:50:41;40.72;;;19.00;;
55218;SDS011;65463;43.864;20.136;2023-09-19T02:53:07;39.55;;;18.17;;
55218;SDS011;65463;43.864;20.136;2023-09-19T02:55:35;42.97;;;19.45;;
55218;SDS011;65463;43.864;20.136;2023-09-19T02:58:03;34.78;;;17.30;;
55218;SDS011;65463;43.864;20.136;2023-09-19T03:00:32;44.72;;;18.50;;
55218;SDS011;65463;43.864;20.136;2023-09-19T03:03:02;48.15;;;19.88;;
55218;SDS011;65463;43.864;20.136;2023-09-19T03:05:30;43.95;;;20.70;;
55218;SDS011;65463;43.864;20.136;2023-09-19T03:07:57;42.33;;;21.25;;
55218;SDS011;65463;43.864;20.136;2023-09-19T03:10:25;41.13;;;20.50;;
55218;SDS011;65463;43.864;20.136;2023-09-19T03:12:53;44.08;;;19.17;;
55218;SDS011;65463;43.864;20.136;2023-09-19T03:15:19;41.53;;;20.08;;
55218;SDS011;65463;43.864;20.136;2023-09-19T03:17:47;44.65;;;21.25;;
55218;SDS011;65463;43.864;20.136;2023-09-19T03:20:14;45.67;;;21.00;;
55218;SDS011;65463;43.864;20.136;2023-09-19T03:22:45;45.25;;;21.65;;
55218;SDS011;65463;43.864;20.136;2023-09-19T03:25:11;48.33;;;22.47;;
55218;SDS011;65463;43.864;20.136;2023-09-19T03:27:38;46.50;;;22.70;;
55218;SDS011;65463;43.864;20.136;2023-09-19T03:30:05;49.53;;;23.52;;
55218;SDS011;65463;43.864;20.136;2023-09-19T03:32:34;46.92;;;23.77;;
55218;SDS011;65463;43.864;20.136;2023-09-19T03:35:01;45.53;;;21.83;;
55218;SDS011;65463;43.864;20.136;2023-09-19T03:37:27;43.67;;;22.00;;
55218;SDS011;65463;43.864;20.136;2023-09-19T03:39:53;42.40;;;21.48;;
55218;SDS011;65463;43.864;20.136;2023-09-19T03:42:20;43.55;;;21.30;;
55218;SDS011;65463;43.864;20.136;2023-09-19T03:44:50;45.17;;;21.00;;
55218;SDS011;65463;43.864;20.136;2023-09-19T03:47:17;40.90;;;20.05;;
55218;SDS011;65463;43.864;20.136;2023-09-19T03:49:44;46.28;;;21.27;;
55218;SDS011;65463;43.864;20.136;2023-09-19T03:52:10;40.90;;;19.67;;
55218;SDS011;65463;43.864;20.136;2023-09-19T03:54:36;36.03;;;17.70;;
55218;SDS011;65463;43.864;20.136;2023-09-19T03:57:02;46.08;;;20.42;;
55218;SDS011;65463;43.864;20.136;2023-09-19T03:59:29;49.17;;;22.35;;
55218;SDS011;65463;43.864;20.136;2023-09-19T04:01:55;47.20;;;21.30;;
55218;SDS011;65463;43.864;20.136;2023-09-19T04:04:23;47.47;;;22.77;;
55218;SDS011;65463;43.864;20.136;2023-09-19T04:06:53;48.80;;;22.83;;
55218;SDS011;65463;43.864;20.136;2023-09-19T04:09:19;53.40;;;21.55;;
55218;SDS011;65463;43.864;20.136;2023-09-19T04:11:45;50.78;;;21.42;;
55218;SDS011;65463;43.864;20.136;2023-09-19T04:14:11;53.60;;;22.27;;
55218;SDS011;65463;43.864;20.136;2023-09-19T04:16:37;45.85;;;21.80;;
55218;SDS011;65463;43.864;20.136;2023-09-19T04:19:04;50.10;;;20.80;;
55218;SDS011;65463;43.864;20.136;2023-09-19T04:21:30;43.75;;;19.95;;
55218;SDS011;65463;43.864;20.136;2023-09-19T04:23:57;44.70;;;19.92;;
55218;SDS011;65463;43.864;20.136;2023-09-19T04:26:24;43.15;;;18.73;;
55218;SDS011;65463;43.864;20.136;2023-09-19T04:28:51;37.17;;;15.73;;
55218;SDS011;65463;43.864;20.136;2023-09-19T04:31:17;30.75;;;15.15;;
55218;SDS011;65463;43.864;20.136;2023-09-19T04:33:44;33.10;;;15.40;;
55218;SDS011;65463;43.864;20.136;2023-09-19T04:36:10;29.40;;;14.27;;
55218;SDS011;65463;43.864;20.136;2023-09-19T04:38:38;35.53;;;15.60;;
55218;SDS011;65463;43.864;20.136;2023-09-19T04:41:05;37.63;;;17.05;;
55218;SDS011;65463;43.864;20.136;2023-09-19T04:43:31;31.52;;;15.93;;
55218;SDS011;65463;43.864;20.136;2023-09-19T04:45:57;31.80;;;17.10;;
55218;SDS011;65463;43.864;20.136;2023-09-19T04:48:25;36.15;;;16.80;;
55218;SDS011;65463;43.864;20.136;2023-09-19T04:50:51;32.40;;;16.38;;
55218;SDS011;65463;43.864;20.136;2023-09-19T04:53:18;38.30;;;16.05;;
55218;SDS011;65463;43.864;20.136;2023-09-19T04:55:49;32.92;;;15.38;;
55218;SDS011;65463;43.864;20.136;2023-09-19T04:58:15;33.72;;;16.42;;
55218;SDS011;65463;43.864;20.136;2023-09-19T05:00:43;31.70;;;16.25;;
55218;SDS011;65463;43.864;20.136;2023-09-19T05:03:09;29.92;;;15.02;;
55218;SDS011;65463;43.864;20.136;2023-09-19T05:05:35;28.67;;;14.65;;
55218;SDS011;65463;43.864;20.136;2023-09-19T05:08:03;32.88;;;15.75;;
55218;SDS011;65463;43.864;20.136;2023-09-19T05:10:31;37.72;;;15.85;;
55218;SDS011;65463;43.864;20.136;2023-09-19T05:12:57;30.63;;;14.57;;
55218;SDS011;65463;43.864;20.136;2023-09-19T05:15:23;32.67;;;15.73;;
55218;SDS011;65463;43.864;20.136;2023-09-19T05:17:52;28.73;;;14.55;;
55218;SDS011;65463;43.864;20.136;2023-09-19T05:20:20;33.63;;;15.38;;
55218;SDS011;65463;43.864;20.136;2023-09-19T05:22:57;33.35;;;16.92;;
55218;SDS011;65463;43.864;20.136;2023-09-19T05:25:26;31.40;;;16.58;;
55218;SDS011;65463;43.864;20.136;2023-09-19T05:27:55;37.13;;;18.83;;
55218;SDS011;65463;43.864;20.136;2023-09-19T05:30:23;32.63;;;15.80;;
55218;SDS011;65463;43.864;20.136;2023-09-19T05:32:52;32.53;;;15.35;;
55218;SDS011;65463;43.864;20.136;2023-09-19T05:35:19;33.63;;;15.40;;
55218;SDS011;65463;43.864;20.136;2023-09-19T05:37:46;34.03;;;15.60;;
55218;SDS011;65463;43.864;20.136;2023-09-19T05:40:16;28.47;;;15.17;;
55218;SDS011;65463;43.864;20.136;2023-09-19T05:42:42;33.70;;;15.05;;
55218;SDS011;65463;43.864;20.136;2023-09-19T05:45:09;34.08;;;15.52;;
55218;SDS011;65463;43.864;20.136;2023-09-19T05:47:42;33.47;;;14.65;;
55218;SDS011;65463;43.864;20.136;2023-09-19T05:50:11;34.38;;;15.45;;
55218;SDS011;65463;43.864;20.136;2023-09-19T05:52:37;30.70;;;14.98;;
55218;SDS011;65463;43.864;20.136;2023-09-19T05:55:07;30.23;;;15.35;;
55218;SDS011;65463;43.864;20.136;2023-09-19T05:57:33;31.35;;;15.05;;
55218;SDS011;65463;43.864;20.136;2023-09-19T05:59:59;29.65;;;14.65;;
55218;SDS011;65463;43.864;20.136;2023-09-19T06:02:26;29.70;;;13.98;;
55218;SDS011;65463;43.864;20.136;2023-09-19T06:04:54;27.60;;;13.55;;
55218;SDS011;65463;43.864;20.136;2023-09-19T06:07:23;29.05;;;14.43;;
55218;SDS011;65463;43.864;20.136;2023-09-19T06:09:51;42.55;;;21.08;;
55218;SDS011;65463;43.864;20.136;2023-09-19T06:12:19;35.83;;;14.50;;
55218;SDS011;65463;43.864;20.136;2023-09-19T06:14:45;29.15;;;14.88;;
55218;SDS011;65463;43.864;20.136;2023-09-19T06:17:11;24.83;;;14.77;;
55218;SDS011;65463;43.864;20.136;2023-09-19T06:19:37;29.33;;;15.13;;
55218;SDS011;65463;43.864;20.136;2023-09-19T06:22:04;25.92;;;14.40;;
55218;SDS011;65463;43.864;20.136;2023-09-19T06:24:30;26.00;;;14.15;;
55218;SDS011;65463;43.864;20.136;2023-09-19T06:26:56;31.38;;;14.30;;
55218;SDS011;65463;43.864;20.136;2023-09-19T06:29:22;25.63;;;14.05;;
55218;SDS011;65463;43.864;20.136;2023-09-19T06:31:50;27.70;;;14.70;;
55218;SDS011;65463;43.864;20.136;2023-09-19T06:34:16;22.77;;;13.50;;
55218;SDS011;65463;43.864;20.136;2023-09-19T06:36:43;28.35;;;14.25;;
55218;SDS011;65463;43.864;20.136;2023-09-19T06:39:10;27.75;;;14.48;;
55218;SDS011;65463;43.864;20.136;2023-09-19T06:41:37;25.50;;;14.50;;
55218;SDS011;65463;43.864;20.136;2023-09-19T06:44:04;21.50;;;13.82;;
55218;SDS011;65463;43.864;20.136;2023-09-19T06:46:31;21.67;;;12.50;;
55218;SDS011;65463;43.864;20.136;2023-09-19T06:49:00;21.63;;;13.30;;
55218;SDS011;65463;43.864;20.136;2023-09-19T06:51:31;29.45;;;13.35;;
55218;SDS011;65463;43.864;20.136;2023-09-19T06:54:02;25.38;;;13.38;;
55218;SDS011;65463;43.864;20.136;2023-09-19T06:56:30;20.42;;;12.07;;
55218;SDS011;65463;43.864;20.136;2023-09-19T06:58:57;25.85;;;12.80;;
55218;SDS011;65463;43.864;20.136;2023-09-19T07:01:23;22.70;;;13.40;;
55218;SDS011;65463;43.864;20.136;2023-09-19T07:03:50;25.60;;;12.38;;
55218;SDS011;65463;43.864;20.136;2023-09-19T07:06:18;27.42;;;12.52;;
55218;SDS011;65463;43.864;20.136;2023-09-19T07:08:44;21.00;;;12.30;;
55218;SDS011;65463;43.864;20.136;2023-09-19T07:11:10;22.38;;;12.70;;
55218;SDS011;65463;43.864;20.136;2023-09-19T07:13:37;25.63;;;13.50;;
55218;SDS011;65463;43.864;20.136;2023-09-19T07:16:06;23.75;;;12.95;;
55218;SDS011;65463;43.864;20.136;2023-09-19T07:18:35;21.77;;;12.48;;
55218;SDS011;65463;43.864;20.136;2023-09-19T07:21:02;23.63;;;12.05;;
55218;SDS011;65463;43.864;20.136;2023-09-19T07:23:30;24.80;;;12.63;;
55218;SDS011;65463;43.864;20.136;2023-09-19T07:26:00;18.60;;;11.05;;
55218;SDS011;65463;43.864;20.136;2023-09-19T07:28:26;29.75;;;12.20;;
55218;SDS011;65463;43.864;20.136;2023-09-19T07:30:53;21.45;;;12.30;;
55218;SDS011;65463;43.864;20.136;2023-09-19T07:33:19;27.38;;;13.65;;
55218;SDS011;65463;43.864;20.136;2023-09-19T07:35:48;22.65;;;13.45;;
55218;SDS011;65463;43.864;20.136;2023-09-19T07:38:14;23.63;;;13.85;;
55218;SDS011;65463;43.864;20.136;2023-09-19T07:40:42;27.65;;;15.18;;
55218;SDS011;65463;43.864;20.136;2023-09-19T07:43:09;28.48;;;15.70;;
55218;SDS011;65463;43.864;20.136;2023-09-19T07:45:35;26.63;;;15.98;;
55218;SDS011;65463;43.864;20.136;2023-09-19T07:48:01;35.20;;;19.00;;
55218;SDS011;65463;43.864;20.136;2023-09-19T07:50:33;42.33;;;22.02;;
55218;SDS011;65463;43.864;20.136;2023-09-19T07:53:01;36.88;;;19.27;;
55218;SDS011;65463;43.864;20.136;2023-09-19T07:55:30;33.58;;;18.77;;
55218;SDS011;65463;43.864;20.136;2023-09-19T07:57:58;33.22;;;17.95;;
55218;SDS011;65463;43.864;20.136;2023-09-19T08:00:31;29.83;;;15.65;;
55218;SDS011;65463;43.864;20.136;2023-09-19T08:02:59;31.88;;;16.90;;
55218;SDS011;65463;43.864;20.136;2023-09-19T08:05:26;29.45;;;17.00;;
55218;SDS011;65463;43.864;20.136;2023-09-19T08:07:52;35.35;;;18.13;;
55218;SDS011;65463;43.864;20.136;2023-09-19T08:10:21;31.75;;;18.33;;
55218;SDS011;65463;43.864;20.136;2023-09-19T08:12:48;31.48;;;17.80;;
55218;SDS011;65463;43.864;20.136;2023-09-19T08:15:15;33.30;;;17.83;;
55218;SDS011;65463;43.864;20.136;2023-09-19T08:17:42;29.85;;;16.30;;
55218;SDS011;65463;43.864;20.136;2023-09-19T08:20:09;30.65;;;16.58;;
55218;SDS011;65463;43.864;20.136;2023-09-19T08:25:16;27.98;;;15.13;;
55218;SDS011;65463;43.864;20.136;2023-09-19T08:27:43;26.58;;;14.55;;
55218;SDS011;65463;43.864;20.136;2023-09-19T08:30:13;24.92;;;13.48;;
55218;SDS011;65463;43.864;20.136;2023-09-19T08:32:40;31.02;;;15.70;;
55218;SDS011;65463;43.864;20.136;2023-09-19T08:35:08;26.77;;;14.82;;
55218;SDS011;65463;43.864;20.136;2023-09-19T08:37:34;27.30;;;13.95;;
55218;SDS011;65463;43.864;20.136;2023-09-19T08:40:00;29.50;;;14.25;;
55218;SDS011;65463;43.864;20.136;2023-09-19T08:42:27;22.88;;;12.80;;
55218;SDS011;65463;43.864;20.136;2023-09-19T08:44:54;28.45;;;13.07;;
55218;SDS011;65463;43.864;20.136;2023-09-19T08:47:33;25.83;;;12.93;;
55218;SDS011;65463;43.864;20.136;2023-09-19T08:52:41;23.60;;;12.18;;
55218;SDS011;65463;43.864;20.136;2023-09-19T08:55:10;23.58;;;12.02;;
55218;SDS011;65463;43.864;20.136;2023-09-19T08:57:37;19.98;;;11.13;;
55218;SDS011;65463;43.864;20.136;2023-09-19T09:00:06;20.17;;;10.88;;
55218;SDS011;65463;43.864;20.136;2023-09-19T09:05:03;21.10;;;11.45;;
55218;SDS011;65463;43.864;20.136;2023-09-19T09:07:31;24.27;;;10.20;;
55218;SDS011;65463;43.864;20.136;2023-09-19T09:10:00;20.48;;;10.15;;
55218;SDS011;65463;43.864;20.136;2023-09-19T09:12:26;19.90;;;9.68;;
55218;SDS011;65463;43.864;20.136;2023-09-19T09:14:52;15.90;;;9.25;;
55218;SDS011;65463;43.864;20.136;2023-09-19T09:17:19;16.88;;;9.10;;
55218;SDS011;65463;43.864;20.136;2023-09-19T09:19:48;14.15;;;8.80;;
55218;SDS011;65463;43.864;20.136;2023-09-19T09:22:14;18.58;;;9.52;;
55218;SDS011;65463;43.864;20.136;2023-09-19T09:24:54;17.27;;;9.38;;
55218;SDS011;65463;43.864;20.136;2023-09-19T09:27:30;14.60;;;8.80;;
55218;SDS011;65463;43.864;20.136;2023-09-19T09:29:59;20.00;;;9.07;;
55218;SDS011;65463;43.864;20.136;2023-09-19T09:32:29;17.83;;;8.60;;
55218;SDS011;65463;43.864;20.136;2023-09-19T09:34:59;16.80;;;8.55;;
55218;SDS011;65463;43.864;20.136;2023-09-19T09:37:26;16.38;;;8.52;;
55218;SDS011;65463;43.864;20.136;2023-09-19T09:39:55;18.65;;;8.40;;
55218;SDS011;65463;43.864;20.136;2023-09-19T09:42:35;16.20;;;8.52;;
55218;SDS011;65463;43.864;20.136;2023-09-19T09:45:25;14.73;;;8.55;;
55218;SDS011;65463;43.864;20.136;2023-09-19T09:48:02;13.35;;;8.10;;
55218;SDS011;65463;43.864;20.136;2023-09-19T09:53:25;13.77;;;7.57;;
55218;SDS011;65463;43.864;20.136;2023-09-19T09:58:23;13.32;;;7.25;;
55218;SDS011;65463;43.864;20.136;2023-09-19T10:00:54;15.02;;;7.68;;
55218;SDS011;65463;43.864;20.136;2023-09-19T10:03:39;14.38;;;7.78;;
55218;SDS011;65463;43.864;20.136;2023-09-19T10:06:06;12.88;;;6.53;;
55218;SDS011;65463;43.864;20.136;2023-09-19T10:08:57;11.73;;;6.47;;
55218;SDS011;65463;43.864;20.136;2023-09-19T10:11:29;14.27;;;6.10;;
55218;SDS011;65463;43.864;20.136;2023-09-19T10:13:56;12.90;;;5.97;;
55218;SDS011;65463;43.864;20.136;2023-09-19T10:16:23;14.35;;;5.88;;
55218;SDS011;65463;43.864;20.136;2023-09-19T10:18:50;12.80;;;5.55;;
55218;SDS011;65463;43.864;20.136;2023-09-19T10:21:19;12.75;;;5.65;;
55218;SDS011;65463;43.864;20.136;2023-09-19T10:23:48;12.75;;;6.05;;
55218;SDS011;65463;43.864;20.136;2023-09-19T10:26:17;12.50;;;5.70;;
55218;SDS011;65463;43.864;20.136;2023-09-19T10:28:43;13.57;;;5.97;;
55218;SDS011;65463;43.864;20.136;2023-09-19T10:31:13;13.05;;;6.50;;
55218;SDS011;65463;43.864;20.136;2023-09-19T10:33:44;12.13;;;6.20;;
55218;SDS011;65463;43.864;20.136;2023-09-19T10:36:11;9.05;;;5.10;;
55218;SDS011;65463;43.864;20.136;2023-09-19T10:38:38;15.07;;;6.00;;
55218;SDS011;65463;43.864;20.136;2023-09-19T10:41:06;15.40;;;6.30;;
55218;SDS011;65463;43.864;20.136;2023-09-19T10:43:33;12.55;;;5.82;;
55218;SDS011;65463;43.864;20.136;2023-09-19T10:46:00;11.95;;;5.60;;
55218;SDS011;65463;43.864;20.136;2023-09-19T10:48:31;15.00;;;5.95;;
55218;SDS011;65463;43.864;20.136;2023-09-19T10:53:24;17.75;;;5.28;;
55218;SDS011;65463;43.864;20.136;2023-09-19T10:55:53;14.98;;;5.25;;
55218;SDS011;65463;43.864;20.136;2023-09-19T10:58:26;14.85;;;4.82;;
55218;SDS011;65463;43.864;20.136;2023-09-19T11:00:54;16.83;;;5.07;;
55218;SDS011;65463;43.864;20.136;2023-09-19T11:03:21;15.40;;;5.68;;
55218;SDS011;65463;43.864;20.136;2023-09-19T11:06:01;17.67;;;5.63;;
55218;SDS011;65463;43.864;20.136;2023-09-19T11:14:28;17.13;;;6.38;;
55218;SDS011;65463;43.864;20.136;2023-09-19T11:22:34;13.15;;;5.75;;
55218;SDS011;65463;43.864;20.136;2023-09-19T11:30:35;20.02;;;6.18;;
55218;SDS011;65463;43.864;20.136;2023-09-19T11:38:57;16.95;;;5.88;;
55218;SDS011;65463;43.864;20.136;2023-09-19T11:43:53;18.13;;;5.20;;
55218;SDS011;65463;43.864;20.136;2023-09-19T11:49:25;13.10;;;5.35;;
55218;SDS011;65463;43.864;20.136;2023-09-19T11:51:57;15.85;;;5.72;;
55218;SDS011;65463;43.864;20.136;2023-09-19T11:54:26;11.82;;;5.32;;
55218;SDS011;65463;43.864;20.136;2023-09-19T11:56:57;15.93;;;5.65;;
55218;SDS011;65463;43.864;20.136;2023-09-19T11:59:24;12.43;;;5.75;;
55218;SDS011;65463;43.864;20.136;2023-09-19T12:01:58;23.23;;;6.35;;
55218;SDS011;65463;43.864;20.136;2023-09-19T12:07:03;15.40;;;5.47;;
55218;SDS011;65463;43.864;20.136;2023-09-19T12:09:29;15.15;;;5.72;;
55218;SDS011;65463;43.864;20.136;2023-09-19T12:11:55;14.25;;;5.75;;
55218;SDS011;65463;43.864;20.136;2023-09-19T12:14:23;23.80;;;5.97;;
55218;SDS011;65463;43.864;20.136;2023-09-19T12:16:56;10.82;;;4.68;;
55218;SDS011;65463;43.864;20.136;2023-09-19T12:19:23;15.18;;;5.07;;
55218;SDS011;65463;43.864;20.136;2023-09-19T12:21:59;14.70;;;4.88;;
55218;SDS011;65463;43.864;20.136;2023-09-19T12:24:34;17.00;;;4.68;;
55218;SDS011;65463;43.864;20.136;2023-09-19T12:27:04;13.40;;;4.82;;
55218;SDS011;65463;43.864;20.136;2023-09-19T12:29:31;16.50;;;4.88;;
55218;SDS011;65463;43.864;20.136;2023-09-19T12:31:59;14.93;;;5.05;;
55218;SDS011;65463;43.864;20.136;2023-09-19T12:37:07;15.25;;;4.70;;
55218;SDS011;65463;43.864;20.136;2023-09-19T12:39:38;15.60;;;4.72;;
55218;SDS011;65463;43.864;20.136;2023-09-19T12:42:06;12.50;;;4.40;;
55218;SDS011;65463;43.864;20.136;2023-09-19T12:44:35;13.23;;;5.22;;
55218;SDS011;65463;43.864;20.136;2023-09-19T12:47:08;14.77;;;4.93;;
55218;SDS011;65463;43.864;20.136;2023-09-19T12:49:34;11.40;;;5.20;;
55218;SDS011;65463;43.864;20.136;2023-09-19T12:52:00;19.23;;;5.30;;
55218;SDS011;65463;43.864;20.136;2023-09-19T12:54:48;9.40;;;4.50;;
55218;SDS011;65463;43.864;20.136;2023-09-19T12:57:25;10.55;;;4.45;;
55218;SDS011;65463;43.864;20.136;2023-09-19T12:59:52;13.52;;;4.90;;
55218;SDS011;65463;43.864;20.136;2023-09-19T13:02:18;13.45;;;5.32;;
55218;SDS011;65463;43.864;20.136;2023-09-19T13:04:52;9.50;;;4.78;;
55218;SDS011;65463;43.864;20.136;2023-09-19T13:10:04;9.13;;;4.57;;
55218;SDS011;65463;43.864;20.136;2023-09-19T13:12:35;15.00;;;5.25;;
55218;SDS011;65463;43.864;20.136;2023-09-19T13:15:12;14.00;;;5.57;;
55218;SDS011;65463;43.864;20.136;2023-09-19T13:17:48;15.57;;;5.30;;
55218;SDS011;65463;43.864;20.136;2023-09-19T13:20:24;12.20;;;4.97;;
55218;SDS011;65463;43.864;20.136;2023-09-19T13:22:54;11.05;;;5.13;;
55218;SDS011;65463;43.864;20.136;2023-09-19T13:25:25;10.90;;;5.65;;
55218;SDS011;65463;43.864;20.136;2023-09-19T13:27:55;11.77;;;4.95;;
55218;SDS011;65463;43.864;20.136;2023-09-19T13:30:22;14.75;;;4.43;;
55218;SDS011;65463;43.864;20.136;2023-09-19T13:32:50;11.55;;;5.22;;
55218;SDS011;65463;43.864;20.136;2023-09-19T13:35:18;10.93;;;5.20;;
55218;SDS011;65463;43.864;20.136;2023-09-19T13:37:44;10.57;;;4.72;;
55218;SDS011;65463;43.864;20.136;2023-09-19T13:40:16;9.30;;;4.70;;
55218;SDS011;65463;43.864;20.136;2023-09-19T13:42:42;10.18;;;4.70;;
55218;SDS011;65463;43.864;20.136;2023-09-19T13:45:12;9.20;;;3.40;;
55218;SDS011;65463;43.864;20.136;2023-09-19T13:47:40;8.55;;;3.60;;
55218;SDS011;65463;43.864;20.136;2023-09-19T13:50:07;11.43;;;3.38;;
55218;SDS011;65463;43.864;20.136;2023-09-19T13:52:33;10.82;;;3.20;;
55218;SDS011;65463;43.864;20.136;2023-09-19T13:54:59;6.55;;;2.90;;
55218;SDS011;65463;43.864;20.136;2023-09-19T13:57:26;8.45;;;2.90;;
55218;SDS011;65463;43.864;20.136;2023-09-19T13:59:52;9.13;;;3.75;;
55218;SDS011;65463;43.864;20.136;2023-09-19T14:02:20;7.68;;;2.58;;
55218;SDS011;65463;43.864;20.136;2023-09-19T14:04:48;11.07;;;3.13;;
55218;SDS011;65463;43.864;20.136;2023-09-19T14:07:16;6.67;;;3.20;;
55218;SDS011;65463;43.864;20.136;2023-09-19T14:09:43;10.25;;;2.75;;
55218;SDS011;65463;43.864;20.136;2023-09-19T14:12:10;13.05;;;3.38;;
55218;SDS011;65463;43.864;20.136;2023-09-19T14:14:37;10.30;;;3.40;;
55218;SDS011;65463;43.864;20.136;2023-09-19T14:17:03;16.48;;;3.45;;
55218;SDS011;65463;43.864;20.136;2023-09-19T14:19:30;8.65;;;3.40;;
55218;SDS011;65463;43.864;20.136;2023-09-19T14:22:00;15.25;;;3.67;;
55218;SDS011;65463;43.864;20.136;2023-09-19T14:24:32;11.85;;;3.58;;
55218;SDS011;65463;43.864;20.136;2023-09-19T14:26:59;13.57;;;3.50;;
55218;SDS011;65463;43.864;20.136;2023-09-19T14:29:25;10.50;;;3.25;;
55218;SDS011;65463;43.864;20.136;2023-09-19T14:31:51;10.13;;;3.67;;
55218;SDS011;65463;43.864;20.136;2023-09-19T14:34:17;9.50;;;3.42;;
55218;SDS011;65463;43.864;20.136;2023-09-19T14:36:44;14.30;;;4.65;;
55218;SDS011;65463;43.864;20.136;2023-09-19T14:39:11;11.98;;;4.25;;
55218;SDS011;65463;43.864;20.136;2023-09-19T14:41:37;12.07;;;3.88;;
55218;SDS011;65463;43.864;20.136;2023-09-19T15:00:09;11.48;;;3.47;;
55218;SDS011;65463;43.864;20.136;2023-09-19T15:02:37;13.02;;;4.15;;
55218;SDS011;65463;43.864;20.136;2023-09-19T15:05:05;12.77;;;4.18;;
55218;SDS011;65463;43.864;20.136;2023-09-19T15:07:33;34.28;;;5.63;;
55218;SDS011;65463;43.864;20.136;2023-09-19T15:10:01;22.08;;;5.10;;
55218;SDS011;65463;43.864;20.136;2023-09-19T15:12:29;17.33;;;5.13;;
55218;SDS011;65463;43.864;20.136;2023-09-19T15:14:55;18.30;;;5.28;;
55218;SDS011;65463;43.864;20.136;2023-09-19T15:17:22;17.35;;;4.93;;
55218;SDS011;65463;43.864;20.136;2023-09-19T15:19:50;13.02;;;4.95;;
55218;SDS011;65463;43.864;20.136;2023-09-19T15:22:16;13.45;;;5.40;;
55218;SDS011;65463;43.864;20.136;2023-09-19T15:24:42;18.52;;;5.32;;
55218;SDS011;65463;43.864;20.136;2023-09-19T15:27:08;22.58;;;7.93;;
55218;SDS011;65463;43.864;20.136;2023-09-19T15:29:35;23.83;;;9.80;;
55218;SDS011;65463;43.864;20.136;2023-09-19T15:32:01;17.70;;;8.52;;
55218;SDS011;65463;43.864;20.136;2023-09-19T15:34:28;20.23;;;6.55;;
55218;SDS011;65463;43.864;20.136;2023-09-19T15:36:55;16.92;;;6.15;;
55218;SDS011;65463;43.864;20.136;2023-09-19T15:39:21;19.25;;;7.75;;
55218;SDS011;65463;43.864;20.136;2023-09-19T15:41:50;21.48;;;6.13;;
55218;SDS011;65463;43.864;20.136;2023-09-19T15:44:19;15.52;;;6.45;;